NY80 weather

Aurora Balloonport
South Wales, New York, United States

Public forecast

Using degrees Fahrenheit for public forecast. Weather courtesy of forecast.io.

Closest aviation weather report (METAR) to Aurora Balloonport

Closest report is Buffalo Niagara International Airport, 16.3 nm (30.2 km) NNW. Retrieved 2020/07/08 04:54 UTC (34 minutes ago):

KBUF 080454Z 23009KT 10SM FEW250 26/19 A2996 RMK AO2 SLP140 T02610189 403440206

Closest aviation forecast (TAF) to Aurora Balloonport

Closest forecast is Buffalo Niagara International Airport, 16.3 nm (30.2 km) NNW. Retrieved 2020-07-08 00:42 UTC (5 hours ago):

TAF KBUF 072340Z 0800/0824 23008KT P6SM FEW250 FM080900 21005KT P6SM SCT080 FM081100 23007KT P6SM BKN070 FM081500 24008KT P6SM FEW090